EHDL

Deelen Air Base Airport

Arnhem, The Netherlands
METAR EHDL 201425Z AUTO VRB05KT 9999 NCD 26/09 Q1012 BLU
Observed Flight Rules
Jul-20 @ 14:25 UTC (20 minutes ago) Visual Flight Rules
Wind Visibility Clouds
Variable at 5 knots 10,000+ meters
  • Clear skies
Temperatures Readings
Current 26°C / 79°F
Dewpoint 9°C / 48°F
Humidity 34%
Altimeter 29.88" Hg
Pressure 1012 hPa
Elevation 52
METAR EHDL 201425Z AUTO VRB05KT 9999 NCD 26/09 Q1012 BLU
Observed Flight Rules
Jul-20 @ 14:25 UTC
(20 minutes ago)
VFR
Wind Visibility
Variable at 5 knots 10,000+ meters
Clouds
  • Clear skies
Temperature Dewpoint
26°C / 79°F 9°C / 48°F
Humidity Altimeter Pressure
34% 29.88" Hg 1012 hPa